createdAt,value
2022-08-07T00:00:51.864Z,0.00
2022-08-07T00:02:36.731Z,0.00
2022-08-07T00:02:53.435Z,0.00
2022-08-07T00:03:50.834Z,0.00
2022-08-07T00:04:50.885Z,0.00
2022-08-07T00:05:50.805Z,0.00
2022-08-07T00:06:52.334Z,0.00
2022-08-07T00:07:59.767Z,0.00
2022-08-07T00:08:51.775Z,0.00
2022-08-07T00:10:04.883Z,0.00
2022-08-07T00:10:57.394Z,0.00
2022-08-07T00:11:55.895Z,0.00
2022-08-07T00:12:59.921Z,0.00
2022-08-07T00:13:51.714Z,0.00
2022-08-07T00:14:50.704Z,0.00
2022-08-07T00:15:50.941Z,0.00
2022-08-07T00:16:50.685Z,0.00
2022-08-07T00:17:50.673Z,0.00
2022-08-07T00:18:50.654Z,0.00
2022-08-07T00:20:02.468Z,0.00
2022-08-07T00:20:51.633Z,0.00
2022-08-07T00:21:57.312Z,0.00
2022-08-07T00:22:51.953Z,0.00
2022-08-07T00:23:50.603Z,0.00
2022-08-07T00:24:50.595Z,0.00
2022-08-07T00:25:52.075Z,0.00
2022-08-07T00:26:59.404Z,0.00
2022-08-07T00:27:52.224Z,0.00
2022-08-07T00:28:55.679Z,0.00
2022-08-07T00:29:51.532Z,0.00
2022-08-07T00:30:50.532Z,0.00
2022-08-07T00:31:51.304Z,0.00
2022-08-07T00:32:50.504Z,0.00
2022-08-07T00:33:50.492Z,0.00
2022-08-07T00:34:50.718Z,0.00
2022-08-07T00:35:50.492Z,0.00
2022-08-07T00:36:50.451Z,0.00
2022-08-07T00:37:50.448Z,0.00
2022-08-07T00:38:50.573Z,0.00
2022-08-07T00:39:54.560Z,0.00
2022-08-07T00:40:50.423Z,0.00
2022-08-07T00:41:53.871Z,0.00
2022-08-07T00:42:51.382Z,0.00
2022-08-07T00:44:00.977Z,0.00
2022-08-07T00:44:51.380Z,0.00
2022-08-07T00:45:50.350Z,0.00
2022-08-07T00:46:50.352Z,0.00
2022-08-07T00:48:07.792Z,0.00
2022-08-07T00:48:51.836Z,0.00
2022-08-07T00:50:19.780Z,0.00
2022-08-07T00:50:51.754Z,0.00
2022-08-07T00:51:58.767Z,0.00
2022-08-07T00:52:51.271Z,0.00
2022-08-07T00:53:55.856Z,0.00
2022-08-07T00:54:53.816Z,0.00
2022-08-07T00:56:03.181Z,0.00
2022-08-07T00:56:51.252Z,0.00
2022-08-07T00:57:55.827Z,0.00
2022-08-07T00:58:51.201Z,0.00
2022-08-07T00:59:50.189Z,0.00
2022-08-07T01:00:53.577Z,0.00
2022-08-07T01:01:50.196Z,0.00
2022-08-07T01:02:51.160Z,0.00
2022-08-07T01:03:57.092Z,0.00
2022-08-07T01:04:51.170Z,0.00
2022-08-07T01:05:51.697Z,0.00
2022-08-07T01:06:50.131Z,0.00
2022-08-07T01:07:50.100Z,0.00
2022-08-07T01:08:53.661Z,0.00
2022-08-07T01:10:06.991Z,0.00
2022-08-07T01:10:56.299Z,0.00
2022-08-07T01:12:23.797Z,0.00
2022-08-07T01:12:53.910Z,0.00
2022-08-07T01:13:56.108Z,0.00
2022-08-07T01:14:51.018Z,0.00
2022-08-07T01:16:05.039Z,0.00
2022-08-07T01:16:51.007Z,0.00
2022-08-07T01:17:49.987Z,0.00
2022-08-07T01:18:49.980Z,0.00
2022-08-07T01:19:54.410Z,0.00
2022-08-07T01:20:59.359Z,0.00
2022-08-07T01:21:53.287Z,0.00
2022-08-07T01:23:00.772Z,0.00
2022-08-07T01:23:50.919Z,0.00
2022-08-07T01:24:49.906Z,0.00
2022-08-07T01:25:56.162Z,0.00
2022-08-07T01:26:52.234Z,0.00
2022-08-07T01:27:50.972Z,0.00
2022-08-07T01:28:49.847Z,0.00
2022-08-07T01:29:50.623Z,0.00
2022-08-07T01:30:51.283Z,0.00
2022-08-07T01:31:49.940Z,0.00
2022-08-07T01:32:49.841Z,0.00
2022-08-07T01:33:55.541Z,0.00
2022-08-07T01:34:50.787Z,0.00
2022-08-07T01:35:54.086Z,0.00
2022-08-07T01:36:52.888Z,0.00
2022-08-07T01:37:50.748Z,0.00
2022-08-07T01:38:49.738Z,0.00
2022-08-07T01:39:49.784Z,0.00
2022-08-07T01:40:49.717Z,0.00
2022-08-07T01:42:07.677Z,0.00
2022-08-07T01:42:56.932Z,0.00
2022-08-07T01:43:50.686Z,0.00
2022-08-07T01:44:49.666Z,0.00
2022-08-07T01:45:49.664Z,0.00
2022-08-07T01:46:50.666Z,0.00
2022-08-07T01:48:18.320Z,0.00
2022-08-07T01:48:50.625Z,0.00
2022-08-07T01:49:49.623Z,0.00
2022-08-07T01:50:50.607Z,0.00
2022-08-07T01:52:03.095Z,0.00
2022-08-07T01:52:54.943Z,0.00
2022-08-07T01:54:12.283Z,0.00
2022-08-07T01:54:50.556Z,0.00
2022-08-07T01:55:49.546Z,0.00
2022-08-07T01:56:49.751Z,0.00
2022-08-07T01:58:01.154Z,0.00
2022-08-07T01:58:50.516Z,0.00
2022-08-07T01:59:49.507Z,0.00
2022-08-07T02:00:49.989Z,0.00
2022-08-07T02:02:02.331Z,0.00
2022-08-07T02:03:18.356Z,0.00
2022-08-07T02:03:51.137Z,0.00
2022-08-07T02:04:55.621Z,0.00
2022-08-07T02:06:01.007Z,0.00
2022-08-07T02:06:50.415Z,0.00
2022-08-07T02:07:50.542Z,0.00
2022-08-07T02:08:49.405Z,0.00
2022-08-07T02:09:53.258Z,0.00
2022-08-07T02:10:55.267Z,0.00
2022-08-07T02:12:02.928Z,0.00
2022-08-07T02:12:50.472Z,0.00
2022-08-07T02:13:57.458Z,0.00
2022-08-07T02:14:50.325Z,0.00
2022-08-07T02:15:49.314Z,0.00
2022-08-07T02:16:49.307Z,0.00
2022-08-07T02:17:51.680Z,0.00
2022-08-07T02:18:49.304Z,0.00
2022-08-07T02:20:05.311Z,0.00
2022-08-07T02:20:51.941Z,0.00
2022-08-07T02:21:56.476Z,0.00
2022-08-07T02:22:54.927Z,0.00
2022-08-07T02:23:50.235Z,0.00
2022-08-07T02:24:49.213Z,0.00
2022-08-07T02:26:31.081Z,0.00
2022-08-07T02:26:50.185Z,0.00
2022-08-07T02:27:52.252Z,0.00
2022-08-07T02:28:49.163Z,0.00
2022-08-07T02:29:54.477Z,0.00
2022-08-07T02:30:50.143Z,0.00
2022-08-07T02:31:49.143Z,0.00
2022-08-07T02:33:00.965Z,0.00
2022-08-07T02:34:01.503Z,0.00
2022-08-07T02:34:51.306Z,0.00
2022-08-07T02:36:26.955Z,0.00
2022-08-07T02:36:50.073Z,0.00
2022-08-07T02:37:49.074Z,0.00
2022-08-07T02:38:50.910Z,0.00
2022-08-07T02:40:02.317Z,0.00
2022-08-07T02:40:55.310Z,0.00
2022-08-07T02:41:54.205Z,0.00
2022-08-07T02:42:50.011Z,0.00
2022-08-07T02:43:49.951Z,0.00
2022-08-07T02:44:49.014Z,0.00
2022-08-07T02:45:58.361Z,0.00
2022-08-07T02:46:52.679Z,0.00
2022-08-07T02:47:49.441Z,0.00
2022-08-07T02:48:54.954Z,0.00
2022-08-07T02:49:57.568Z,0.00
2022-08-07T02:50:49.940Z,0.00
2022-08-07T02:51:51.891Z,0.00
2022-08-07T02:52:49.016Z,0.00
2022-08-07T02:53:48.881Z,0.00
2022-08-07T02:54:48.870Z,0.00
2022-08-07T02:56:03.498Z,0.00
2022-08-07T02:56:49.860Z,0.00
2022-08-07T02:57:48.862Z,0.00
2022-08-07T02:58:48.830Z,0.00
2022-08-07T02:59:55.023Z,0.00
2022-08-07T03:00:49.828Z,0.00
2022-08-07T03:01:52.165Z,0.00
2022-08-07T03:02:55.011Z,0.00
2022-08-07T03:03:50.903Z,0.00
2022-08-07T03:04:48.760Z,0.00
2022-08-07T03:05:48.753Z,0.00
2022-08-07T03:06:48.802Z,0.00
2022-08-07T03:08:07.700Z,0.00
2022-08-07T03:08:49.721Z,0.00
2022-08-07T03:09:51.968Z,0.00
2022-08-07T03:10:48.690Z,0.00
2022-08-07T03:11:52.521Z,0.00
2022-08-07T03:12:49.668Z,0.00
2022-08-07T03:13:49.335Z,0.00
2022-08-07T03:14:52.201Z,0.00
2022-08-07T03:15:56.251Z,0.00
2022-08-07T03:16:49.619Z,0.00
2022-08-07T03:17:53.999Z,0.00
2022-08-07T03:18:49.611Z,0.00
2022-08-07T03:19:55.196Z,0.00
2022-08-07T03:20:49.578Z,0.00
2022-08-07T03:21:50.432Z,0.00
2022-08-07T03:22:50.181Z,0.00
2022-08-07T03:24:20.400Z,0.00
2022-08-07T03:24:49.540Z,0.00
2022-08-07T03:25:50.833Z,0.00
2022-08-07T03:26:57.952Z,0.00
2022-08-07T03:28:09.012Z,0.00
2022-08-07T03:28:49.478Z,0.00
2022-08-07T03:29:50.759Z,0.00
2022-08-07T03:30:48.458Z,0.00
2022-08-07T03:31:49.854Z,0.00
2022-08-07T03:32:58.256Z,0.00
2022-08-07T03:33:49.428Z,0.00
2022-08-07T03:35:00.708Z,0.00
2022-08-07T03:35:50.483Z,0.00
2022-08-07T03:36:48.707Z,0.00
2022-08-07T03:37:54.054Z,0.00
2022-08-07T03:38:49.368Z,4.00
2022-08-07T03:39:59.339Z,0.00
2022-08-07T03:40:57.127Z,0.00
2022-08-07T03:41:50.982Z,0.00
2022-08-07T03:42:49.307Z,4.00
2022-08-07T03:43:57.137Z,4.00
2022-08-07T03:44:53.510Z,4.00
2022-08-07T03:45:48.546Z,0.00
2022-08-07T03:47:11.070Z,0.00
2022-08-07T03:47:51.435Z,4.00
2022-08-07T03:49:02.675Z,4.00
2022-08-07T03:49:53.549Z,8.00
2022-08-07T03:50:55.796Z,4.00
2022-08-07T03:51:56.051Z,4.00
2022-08-07T03:52:49.206Z,8.00
2022-08-07T03:54:05.542Z,4.00
2022-08-07T03:54:54.975Z,8.00
2022-08-07T03:55:58.227Z,8.00
2022-08-07T03:57:03.605Z,12.00
2022-08-07T03:58:33.614Z,12.00
2022-08-07T03:59:08.056Z,12.00
2022-08-07T04:00:02.799Z,12.00
2022-08-07T04:00:53.243Z,12.00
2022-08-07T04:01:49.151Z,16.00
2022-08-07T04:02:49.474Z,16.00
2022-08-07T04:03:49.674Z,20.00
2022-08-07T04:04:49.074Z,24.00
2022-08-07T04:05:48.075Z,24.00
2022-08-07T04:06:51.667Z,28.00
2022-08-07T04:07:48.443Z,28.00
2022-08-07T04:08:48.035Z,32.00
2022-08-07T04:09:50.403Z,32.00
2022-08-07T04:10:54.528Z,36.00
2022-08-07T04:12:25.319Z,40.00
2022-08-07T04:12:48.985Z,40.00
2022-08-07T04:14:09.515Z,44.00
2022-08-07T04:14:49.185Z,48.00
2022-08-07T04:15:49.163Z,52.00
2022-08-07T04:16:58.146Z,52.00
2022-08-07T04:18:57.824Z,56.00
2022-08-07T04:18:59.084Z,56.00
2022-08-07T04:19:52.500Z,64.00
2022-08-07T04:20:54.628Z,64.00
2022-08-07T04:21:59.277Z,68.00
2022-08-07T04:22:53.136Z,68.00
2022-08-07T04:24:07.863Z,68.00
2022-08-07T04:24:48.845Z,76.00
2022-08-07T04:25:47.833Z,80.00
2022-08-07T04:26:47.838Z,84.00
2022-08-07T04:28:00.357Z,88.00
2022-08-07T04:28:48.804Z,96.00
2022-08-07T04:29:58.381Z,100.00
2022-08-07T04:30:56.766Z,108.00
2022-08-07T04:32:03.345Z,116.00
2022-08-07T04:32:48.782Z,120.00
2022-08-07T04:33:54.915Z,124.00
2022-08-07T04:34:48.734Z,128.00
2022-08-07T04:35:50.138Z,136.00
2022-08-07T04:36:48.725Z,140.00
2022-08-07T04:38:00.871Z,144.00
2022-08-07T04:38:48.692Z,152.00
2022-08-07T04:39:47.977Z,156.00
2022-08-07T04:40:51.941Z,164.00
2022-08-07T04:41:50.406Z,168.00
2022-08-07T04:42:52.383Z,180.00
2022-08-07T04:44:12.743Z,188.00
2022-08-07T04:44:54.745Z,204.00
2022-08-07T04:46:00.889Z,224.00
2022-08-07T04:47:07.702Z,236.00
2022-08-07T04:47:57.414Z,244.00
2022-08-07T04:48:50.858Z,252.00
2022-08-07T04:50:03.830Z,256.00
2022-08-07T04:50:52.189Z,260.00
2022-08-07T04:51:47.541Z,256.00
2022-08-07T04:52:52.019Z,260.00
2022-08-07T04:54:05.147Z,264.00
2022-08-07T04:54:50.602Z,260.00
2022-08-07T04:58:12.384Z,256.00
2022-08-07T04:58:12.435Z,260.00
2022-08-07T04:58:13.257Z,252.00
2022-08-07T04:59:17.095Z,268.00
2022-08-07T05:00:13.304Z,268.00
2022-08-07T05:00:48.503Z,264.00
2022-08-07T05:01:47.429Z,268.00
2022-08-07T05:02:47.769Z,264.00
2022-08-07T05:04:06.504Z,264.00
2022-08-07T05:04:50.280Z,264.00
2022-08-07T05:05:53.857Z,260.00
2022-08-07T05:06:51.694Z,260.00
2022-08-07T05:07:51.711Z,256.00
2022-08-07T05:09:00.792Z,256.00
2022-08-07T05:09:48.342Z,260.00
2022-08-07T05:10:47.371Z,264.00
2022-08-07T05:11:57.215Z,264.00
2022-08-07T05:12:53.025Z,268.00
2022-08-07T05:14:54.374Z,268.00
2022-08-07T05:14:55.931Z,272.00
2022-08-07T05:15:48.268Z,272.00
2022-08-07T05:16:47.249Z,272.00
2022-08-07T05:18:00.599Z,272.00
2022-08-07T05:18:48.227Z,276.00
2022-08-07T05:19:47.230Z,264.00
2022-08-07T05:20:47.207Z,280.00
2022-08-07T05:22:00.107Z,280.00
2022-08-07T05:22:48.188Z,280.00
2022-08-07T05:23:47.185Z,280.00
2022-08-07T05:24:47.178Z,288.00
2022-08-07T05:26:11.084Z,292.00
2022-08-07T05:26:48.137Z,300.00
2022-08-07T05:28:03.386Z,308.00
2022-08-07T05:28:49.932Z,316.00
2022-08-07T05:29:51.299Z,324.00
2022-08-07T05:30:48.096Z,332.00
2022-08-07T05:31:51.139Z,344.00
2022-08-07T05:32:48.067Z,360.00
2022-08-07T05:33:51.288Z,372.00
2022-08-07T05:34:48.073Z,384.00
2022-08-07T05:35:47.856Z,388.00
2022-08-07T05:36:49.097Z,388.00
2022-08-07T05:37:48.015Z,404.00
2022-08-07T05:39:00.301Z,408.00
2022-08-07T05:40:07.157Z,408.00
2022-08-07T05:40:51.443Z,408.00
2022-08-07T05:42:00.667Z,408.00
2022-08-07T05:42:56.313Z,428.00
2022-08-07T05:44:08.136Z,444.00
2022-08-07T05:44:52.988Z,452.00
2022-08-07T05:45:48.352Z,472.00
2022-08-07T05:46:46.937Z,488.00
2022-08-07T05:48:01.843Z,496.00
2022-08-07T05:48:59.030Z,496.00
2022-08-07T05:49:47.876Z,484.00
2022-08-07T05:50:46.877Z,500.00
2022-08-07T05:51:46.931Z,512.00
2022-08-07T05:52:46.853Z,536.00
2022-08-07T05:54:09.343Z,548.00
2022-08-07T05:54:55.305Z,556.00
2022-08-07T05:56:03.551Z,544.00
2022-08-07T05:56:47.810Z,536.00
2022-08-07T05:57:46.835Z,540.00
2022-08-07T05:58:49.328Z,536.00
2022-08-07T05:59:57.994Z,544.00
2022-08-07T06:00:50.822Z,564.00
2022-08-07T06:01:46.786Z,564.00
2022-08-07T06:02:46.965Z,572.00
2022-08-07T06:03:53.167Z,564.00
2022-08-07T06:04:47.703Z,540.00
2022-08-07T06:05:48.838Z,536.00
2022-08-07T06:06:47.673Z,524.00
2022-08-07T06:08:14.612Z,524.00
2022-08-07T06:08:47.654Z,520.00
2022-08-07T06:10:05.731Z,540.00
2022-08-07T06:10:51.408Z,548.00
2022-08-07T06:11:46.633Z,568.00
2022-08-07T06:12:46.835Z,564.00
2022-08-07T06:14:11.625Z,580.00
2022-08-07T06:14:49.677Z,592.00
2022-08-07T06:15:46.632Z,612.00
2022-08-07T06:16:50.254Z,644.00
2022-08-07T06:17:53.647Z,652.00
2022-08-07T06:18:51.800Z,652.00
2022-08-07T06:20:03.222Z,636.00
2022-08-07T06:20:51.029Z,644.00
2022-08-07T06:22:15.415Z,632.00
2022-08-07T06:22:50.547Z,636.00
2022-08-07T06:24:46.014Z,632.00
2022-08-07T06:24:56.913Z,640.00
2022-08-07T06:25:54.324Z,640.00
2022-08-07T06:26:47.453Z,616.00
2022-08-07T06:28:01.666Z,588.00
2022-08-07T06:28:47.431Z,572.00
2022-08-07T06:29:46.423Z,552.00
2022-08-07T06:30:50.681Z,544.00
2022-08-07T06:31:50.360Z,556.00
2022-08-07T06:32:46.400Z,564.00
2022-08-07T06:33:46.381Z,580.00
2022-08-07T06:34:46.371Z,592.00
2022-08-07T06:35:48.048Z,612.00
2022-08-07T06:36:47.331Z,620.00
2022-08-07T06:37:46.478Z,612.00
2022-08-07T06:38:59.339Z,624.00
2022-08-07T06:40:17.562Z,636.00
2022-08-07T06:40:47.327Z,644.00
2022-08-07T06:42:02.045Z,648.00
2022-08-07T06:42:47.271Z,648.00
2022-08-07T06:43:59.498Z,660.00
2022-08-07T06:44:50.906Z,664.00
2022-08-07T06:45:46.241Z,652.00
2022-08-07T06:46:53.823Z,660.00
2022-08-07T06:47:57.140Z,648.00
2022-08-07T06:48:47.219Z,664.00
2022-08-07T06:49:51.721Z,688.00
2022-08-07T06:50:47.677Z,696.00
2022-08-07T06:51:50.060Z,704.00
2022-08-07T06:52:46.151Z,728.00
2022-08-07T06:54:11.625Z,740.00
2022-08-07T06:55:32.525Z,736.00
2022-08-07T06:56:00.452Z,740.00
2022-08-07T06:56:48.888Z,744.00
2022-08-07T06:57:49.978Z,744.00
2022-08-07T07:00:14.490Z,736.00
2022-08-07T07:00:14.715Z,744.00
2022-08-07T07:00:47.060Z,756.00
2022-08-07T07:01:48.697Z,764.00
2022-08-07T07:02:54.639Z,756.00
2022-08-07T07:03:49.018Z,756.00
2022-08-07T07:04:54.909Z,772.00
2022-08-07T07:06:03.450Z,808.00
2022-08-07T07:07:00.074Z,820.00
2022-08-07T07:07:59.183Z,844.00
2022-08-07T07:08:47.020Z,864.00
2022-08-07T07:09:45.989Z,864.00
2022-08-07T07:10:47.589Z,876.00
2022-08-07T07:12:08.217Z,884.00
2022-08-07T07:12:48.913Z,896.00
2022-08-07T07:13:58.061Z,912.00
2022-08-07T07:14:46.915Z,920.00
2022-08-07T07:15:45.908Z,932.00
2022-08-07T07:16:50.566Z,944.00
2022-08-07T07:17:50.466Z,940.00
2022-08-07T07:18:48.638Z,936.00
2022-08-07T07:19:57.795Z,948.00
2022-08-07T07:20:46.917Z,956.00
2022-08-07T07:22:11.843Z,976.00
2022-08-07T07:24:09.725Z,968.00
2022-08-07T07:24:11.034Z,980.00
2022-08-07T07:25:02.325Z,968.00
2022-08-07T07:26:35.115Z,988.00
2022-08-07T07:26:52.086Z,1016.00
2022-08-07T07:27:55.439Z,1000.00
2022-08-07T07:29:28.474Z,980.00
2022-08-07T07:30:07.425Z,976.00
2022-08-07T07:30:46.753Z,988.00
2022-08-07T07:31:46.593Z,1012.00
2022-08-07T07:32:45.715Z,1028.00
2022-08-07T07:33:49.047Z,1000.00
2022-08-07T07:34:48.706Z,1020.00
2022-08-07T07:36:03.947Z,1008.00
2022-08-07T07:36:48.067Z,988.00
2022-08-07T07:37:49.983Z,992.00
2022-08-07T07:38:47.509Z,1004.00
2022-08-07T07:39:54.477Z,1008.00
2022-08-07T07:40:47.596Z,1032.00
2022-08-07T07:41:50.878Z,1036.00
2022-08-07T07:42:47.021Z,1036.00
2022-08-07T07:44:14.434Z,1032.00
2022-08-07T07:44:49.522Z,1000.00
2022-08-07T07:46:38.296Z,964.00
2022-08-07T07:46:57.166Z,956.00
2022-08-07T07:47:52.409Z,964.00
2022-08-07T07:48:46.528Z,976.00
2022-08-07T07:50:36.041Z,1044.00
2022-08-07T07:50:46.507Z,1016.00
2022-08-07T07:51:57.937Z,1064.00
2022-08-07T07:52:47.091Z,988.00
2022-08-07T07:53:52.155Z,1220.00
2022-08-07T07:54:51.396Z,1144.00
2022-08-07T07:55:54.749Z,1076.00
2022-08-07T07:56:46.435Z,968.00
2022-08-07T07:57:52.985Z,1116.00
2022-08-07T07:58:46.424Z,1100.00
2022-08-07T07:59:51.719Z,1052.00
2022-08-07T08:00:50.854Z,1040.00
2022-08-07T08:02:03.563Z,872.00
2022-08-07T08:03:05.722Z,1044.00
2022-08-07T08:04:10.389Z,1028.00
2022-08-07T08:04:46.391Z,1020.00
2022-08-07T08:05:55.368Z,1024.00
2022-08-07T08:06:51.956Z,1048.00
2022-08-07T08:07:59.734Z,1056.00
2022-08-07T08:08:46.304Z,896.00
2022-08-07T08:09:52.444Z,1056.00
2022-08-07T08:10:46.294Z,1124.00
2022-08-07T08:11:59.970Z,1128.00
2022-08-07T08:12:52.213Z,1132.00
2022-08-07T08:13:54.402Z,1152.00
2022-08-07T08:14:46.234Z,928.00
2022-08-07T08:15:59.181Z,1232.00
2022-08-07T08:16:50.672Z,1188.00
2022-08-07T08:17:57.097Z,1176.00
2022-08-07T08:18:46.183Z,1200.00
2022-08-07T08:20:19.531Z,1168.00
2022-08-07T08:20:47.837Z,1000.00
2022-08-07T08:22:02.518Z,1112.00
2022-08-07T08:22:56.066Z,1056.00
2022-08-07T08:23:46.201Z,1092.00
2022-08-07T08:24:46.653Z,1152.00
2022-08-07T08:25:49.206Z,1160.00
2022-08-07T08:26:45.092Z,1124.00
2022-08-07T08:27:56.957Z,1144.00
2022-08-07T08:28:46.072Z,1000.00
2022-08-07T08:29:55.932Z,1144.00
2022-08-07T08:30:51.508Z,1120.00
2022-08-07T08:32:10.258Z,1168.00
2022-08-07T08:32:48.996Z,1188.00
2022-08-07T08:33:49.944Z,1176.00
2022-08-07T08:34:46.005Z,1100.00
2022-08-07T08:35:49.749Z,1252.00
2022-08-07T08:36:46.323Z,1088.00
2022-08-07T08:38:00.465Z,1256.00
2022-08-07T08:38:45.981Z,1324.00
2022-08-07T08:39:55.253Z,1208.00
2022-08-07T08:40:46.939Z,1160.00
2022-08-07T08:41:57.469Z,1184.00
2022-08-07T08:42:45.930Z,1224.00
2022-08-07T08:43:56.134Z,1256.00
2022-08-07T08:44:46.007Z,1156.00
2022-08-07T08:45:59.187Z,1180.00
2022-08-07T08:46:46.024Z,1196.00
2022-08-07T08:47:52.744Z,1180.00
2022-08-07T08:48:45.881Z,1188.00
2022-08-07T08:49:46.260Z,1260.00
2022-08-07T08:50:44.822Z,1332.00
2022-08-07T08:52:12.649Z,1380.00
2022-08-07T08:52:53.648Z,1368.00
2022-08-07T08:53:45.904Z,1400.00
2022-08-07T08:54:44.771Z,1580.00
2022-08-07T08:55:54.259Z,1432.00
2022-08-07T08:56:47.610Z,1412.00
2022-08-07T08:57:45.114Z,1408.00
2022-08-07T08:58:44.733Z,1524.00
2022-08-07T08:59:48.010Z,1672.00
2022-08-07T09:00:48.631Z,1524.00
2022-08-07T09:01:49.306Z,1568.00
2022-08-07T09:02:49.422Z,1504.00
2022-08-07T09:03:49.538Z,1516.00
2022-08-07T09:04:44.682Z,1524.00
2022-08-07T09:05:44.651Z,1500.00
2022-08-07T09:06:47.827Z,1492.00
2022-08-07T09:07:46.455Z,1420.00
2022-08-07T09:08:46.796Z,1548.00
2022-08-07T09:09:44.612Z,1580.00
2022-08-07T09:10:44.978Z,1636.00
2022-08-07T09:11:53.228Z,1928.00
2022-08-07T09:12:53.650Z,1828.00
2022-08-07T09:13:45.558Z,1724.00
2022-08-07T09:14:50.599Z,1836.00
2022-08-07T09:16:25.298Z,1620.00
2022-08-07T09:16:45.688Z,1480.00
2022-08-07T09:17:59.596Z,1556.00
2022-08-07T09:18:53.002Z,1508.00
2022-08-07T09:19:53.657Z,1544.00
2022-08-07T09:20:58.582Z,1432.00
2022-08-07T09:22:09.760Z,1448.00
2022-08-07T09:24:33.302Z,1576.00
2022-08-07T09:24:55.065Z,1624.00
2022-08-07T09:24:55.110Z,1572.00
2022-08-07T09:25:54.692Z,1420.00
2022-08-07T09:26:47.835Z,1652.00
2022-08-07T09:28:00.671Z,1604.00
2022-08-07T09:30:04.470Z,1588.00
2022-08-07T09:30:05.170Z,1596.00
2022-08-07T09:30:46.450Z,1560.00
2022-08-07T09:31:49.230Z,1552.00
2022-08-07T09:32:45.349Z,1540.00
2022-08-07T09:33:56.518Z,1548.00
2022-08-07T09:34:45.329Z,1476.00
2022-08-07T09:36:04.386Z,1404.00
2022-08-07T09:36:46.914Z,1348.00
2022-08-07T09:37:48.118Z,1404.00
2022-08-07T09:38:50.251Z,1504.00
2022-08-07T09:39:53.867Z,1344.00
2022-08-07T09:40:45.259Z,1292.00
2022-08-07T09:41:58.921Z,1380.00
2022-08-07T09:42:45.548Z,1456.00
2022-08-07T09:44:05.473Z,1500.00
2022-08-07T09:44:58.626Z,1520.00
2022-08-07T09:47:42.382Z,1596.00
2022-08-07T09:47:51.540Z,1596.00
2022-08-07T09:48:00.085Z,1612.00
2022-08-07T09:48:56.211Z,1624.00
2022-08-07T09:50:01.835Z,1620.00
2022-08-07T09:50:45.152Z,1636.00
2022-08-07T09:52:15.407Z,1652.00
2022-08-07T09:52:51.592Z,1672.00
2022-08-07T09:53:47.251Z,1672.00
2022-08-07T09:54:45.102Z,1688.00
2022-08-07T09:56:03.762Z,1720.00
2022-08-07T09:56:46.357Z,1724.00
2022-08-07T09:57:46.474Z,1728.00
2022-08-07T09:58:48.732Z,1760.00
2022-08-07T10:00:00.803Z,1772.00
2022-08-07T10:00:45.028Z,1748.00
2022-08-07T10:01:51.018Z,1792.00
2022-08-07T10:02:55.268Z,1796.00
2022-08-07T10:04:07.118Z,1660.00
2022-08-07T10:04:46.016Z,1804.00
2022-08-07T10:05:59.556Z,1420.00
2022-08-07T10:06:49.094Z,1924.00
2022-08-07T10:07:53.720Z,1860.00
2022-08-07T10:08:44.928Z,1852.00
2022-08-07T10:10:00.755Z,1860.00
2022-08-07T10:12:01.940Z,1884.00
2022-08-07T10:12:52.626Z,1860.00
2022-08-07T10:14:01.003Z,1832.00
2022-08-07T10:14:47.489Z,1896.00
2022-08-07T10:15:45.035Z,1884.00
2022-08-07T10:16:45.242Z,1876.00
2022-08-07T10:18:00.785Z,1872.00
2022-08-07T10:18:44.829Z,1884.00
2022-08-07T10:19:43.889Z,1880.00
2022-08-07T10:20:44.392Z,1888.00
2022-08-07T10:22:14.982Z,1804.00
2022-08-07T10:22:45.295Z,1812.00
2022-08-07T10:24:05.582Z,1844.00
2022-08-07T10:24:44.748Z,1824.00
2022-08-07T10:25:43.777Z,1804.00
2022-08-07T10:26:44.212Z,1632.00
2022-08-07T10:27:47.093Z,1652.00
2022-08-07T10:28:49.681Z,1640.00
2022-08-07T10:29:45.883Z,1508.00
2022-08-07T10:30:44.687Z,1316.00
2022-08-07T10:31:45.318Z,1332.00
2022-08-07T10:32:52.661Z,1428.00
2022-08-07T10:34:05.886Z,1360.00
2022-08-07T10:34:45.146Z,1368.00
2022-08-07T10:35:56.674Z,1444.00
2022-08-07T10:36:45.467Z,1552.00
2022-08-07T10:38:00.684Z,1816.00
2022-08-07T10:38:48.906Z,1988.00
2022-08-07T10:40:03.092Z,2024.00
2022-08-07T10:40:44.568Z,1992.00
2022-08-07T10:41:52.339Z,2100.00
2022-08-07T10:42:44.547Z,2036.00
2022-08-07T10:43:43.567Z,1744.00
2022-08-07T10:44:45.480Z,2040.00
2022-08-07T10:45:44.009Z,1592.00
2022-08-07T10:46:43.505Z,2340.00
2022-08-07T10:47:52.832Z,1720.00
2022-08-07T10:48:44.477Z,1676.00
2022-08-07T10:49:49.031Z,2184.00
2022-08-07T10:50:44.897Z,1860.00
2022-08-07T10:52:02.014Z,2064.00
2022-08-07T10:52:51.186Z,2008.00
2022-08-07T10:53:45.062Z,2108.00
2022-08-07T10:54:53.464Z,2152.00
2022-08-07T10:55:44.407Z,2180.00
2022-08-07T10:56:43.398Z,2188.00
2022-08-07T10:57:43.404Z,2232.00
2022-08-07T10:58:45.959Z,2204.00
2022-08-07T10:59:47.253Z,2056.00
2022-08-07T11:00:50.145Z,2304.00
2022-08-07T11:01:51.099Z,2344.00
2022-08-07T11:02:49.060Z,2416.00
2022-08-07T11:03:54.845Z,2428.00
2022-08-07T11:04:45.555Z,2504.00
2022-08-07T11:05:48.985Z,2552.00
2022-08-07T11:06:44.565Z,2720.00
2022-08-07T11:08:00.804Z,2760.00
2022-08-07T11:08:44.257Z,2772.00
2022-08-07T11:10:08.553Z,2832.00
2022-08-07T11:10:45.940Z,2808.00
2022-08-07T11:11:44.217Z,2856.00
2022-08-07T11:12:44.206Z,2908.00
2022-08-07T11:14:46.027Z,2932.00
2022-08-07T11:15:00.181Z,2960.00
2022-08-07T11:15:44.198Z,3052.00
2022-08-07T11:16:47.998Z,3112.00
2022-08-07T11:17:45.829Z,2948.00
2022-08-07T11:18:43.146Z,3340.00
2022-08-07T11:19:43.126Z,3564.00
2022-08-07T11:20:43.117Z,1816.00
2022-08-07T11:21:43.231Z,3540.00
2022-08-07T11:22:46.242Z,3240.00
2022-08-07T11:23:43.088Z,3200.00
2022-08-07T11:24:45.536Z,3552.00
2022-08-07T11:25:49.730Z,3776.00
2022-08-07T11:26:50.350Z,3840.00
2022-08-07T11:28:03.026Z,3852.00
2022-08-07T11:28:44.027Z,3716.00
2022-08-07T11:29:48.343Z,3912.00
2022-08-07T11:30:44.013Z,1836.00
2022-08-07T11:31:45.063Z,1996.00
2022-08-07T11:32:42.987Z,2448.00
2022-08-07T11:33:58.520Z,2352.00
2022-08-07T11:34:43.965Z,2408.00
2022-08-07T11:35:59.473Z,1852.00
2022-08-07T11:36:43.978Z,2236.00
2022-08-07T11:37:57.470Z,3428.00
2022-08-07T11:38:50.334Z,1968.00
2022-08-07T11:39:59.807Z,1932.00
2022-08-07T11:40:49.398Z,5172.00
2022-08-07T11:42:01.894Z,3388.00
2022-08-07T11:42:43.887Z,1908.00
2022-08-07T11:44:11.062Z,1648.00
2022-08-07T11:44:52.081Z,1660.00
2022-08-07T11:45:53.324Z,2088.00
2022-08-07T11:46:43.828Z,1576.00
2022-08-07T11:47:56.663Z,1484.00
2022-08-07T11:48:54.001Z,1464.00
2022-08-07T11:50:25.469Z,4452.00
2022-08-07T11:50:44.672Z,1752.00
2022-08-07T11:51:46.609Z,1440.00
2022-08-07T11:52:42.757Z,1396.00
2022-08-07T11:53:43.181Z,4824.00
2022-08-07T11:54:54.489Z,4916.00
2022-08-07T11:56:15.651Z,4820.00
2022-08-07T11:56:43.715Z,4696.00
2022-08-07T11:57:58.438Z,4708.00
2022-08-07T11:58:43.709Z,2100.00
2022-08-07T12:00:11.639Z,4540.00
2022-08-07T12:00:48.851Z,4432.00
2022-08-07T12:01:59.741Z,4592.00
2022-08-07T12:02:52.705Z,4524.00
2022-08-07T12:03:45.422Z,4532.00
2022-08-07T12:04:42.645Z,4668.00
2022-08-07T12:05:49.595Z,4804.00
2022-08-07T12:06:51.707Z,4692.00
2022-08-07T12:07:44.031Z,4748.00
2022-08-07T12:08:43.587Z,4764.00
2022-08-07T12:09:42.574Z,4740.00
2022-08-07T12:10:42.565Z,4740.00
2022-08-07T12:11:43.478Z,4548.00
2022-08-07T12:12:43.535Z,4288.00
2022-08-07T12:13:47.556Z,4284.00
2022-08-07T12:14:43.525Z,4268.00
2022-08-07T12:16:05.202Z,3948.00
2022-08-07T12:16:43.493Z,4144.00
2022-08-07T12:17:58.822Z,4052.00
2022-08-07T12:18:45.315Z,4268.00
2022-08-07T12:20:03.294Z,4544.00
2022-08-07T12:20:43.455Z,4720.00
2022-08-07T12:22:37.934Z,4108.00
2022-08-07T12:22:47.342Z,4368.00
2022-08-07T12:24:06.861Z,3944.00
2022-08-07T12:24:43.397Z,2148.00
2022-08-07T12:26:06.139Z,4488.00
2022-08-07T12:26:46.843Z,4272.00
2022-08-07T12:28:05.777Z,4544.00
2022-08-07T12:28:44.953Z,4364.00
2022-08-07T12:29:43.345Z,4004.00
2022-08-07T12:30:47.009Z,4196.00
2022-08-07T12:31:52.957Z,1636.00
2022-08-07T12:32:43.853Z,1600.00
2022-08-07T12:34:00.726Z,1784.00
2022-08-07T12:34:49.120Z,3232.00
2022-08-07T12:35:43.265Z,1568.00
2022-08-07T12:36:43.274Z,1456.00